Boynton Beach, FL (33437)

7:55 PM EST on November 26, 2014 (GMT -0500)
Valencia Pointe | Change Station
CLOSE
Current Station
Personal Weather Station
Location: Boynton Beach, FL
Elevation: 33 ft
Nearby Weather Stations

Elev 33 ft 26.51 °N, 80.16 °W | Updated 2 seconds ago

Mostly Cloudy
Mostly Cloudy
60.7 °F
Feels Like 60.7 °F
N
2.0
Wind Variable Wind from NNW

Today
High -- | Low -- °F
--% Chance of Precip.
Yesterday
High -- | Low -- °F
Precip. -- in
6:48 AM 5:27 PM
Waxing Crescent, 24% visible
Pressure 30.15 in
Visibility 10.0 miles
Clouds Scattered Clouds 4800 ft
Mostly Cloudy 15000 ft
Mostly Cloudy 22000 ft
Dew Point 54 °F
Humidity 80%
Rainfall 0.15 in
Snow Depth Not available.
UV 0 out of 12
Pollen 1.00 out of 12
Air Quality Not available.
Flu Activity Not available.
METAR KPBI 262353Z 32010KT 10SM SCT048 BKN150 BKN220 16/10 A3015 RMK AO2 SLP210 T01560100 10194 20156 52020

More Conditions Fewer Conditions

Pressure 30.15 in
Visibility 10.0 miles
Clouds Scattered Clouds 4800 ft
Mostly Cloudy 15000 ft
Mostly Cloudy 22000 ft
Dew Point 54 °F
Humidity 80%
Rainfall 0.15 in
Snow Depth Not available.
UV 0 out of 12
Pollen 1.00 out of 12
Air Quality Not available.
Flu Activity Not available.
METAR KPBI 262353Z 32010KT 10SM SCT048 BKN150 BKN220 16/10 A3015 RMK AO2 SLP210 T01560100 10194 20156 52020

More Conditions Fewer Conditions

10-Day Weather Forecast

Almanac

Astronomy

Nov. 26, 2014 Rise Set
Actual Time
Civil Twilight
Nautical Twilight
Astronomical Twilight
Moon
Length of Visible Light
Length of Day
Tomorrow will be .
, % of the Moon is Illuminated

Today's Extremes

State Highs State Lows

Community

WunderPhotos

Upload Photos

1,773,930 photos uploaded!

WunderBlogs® & News

Nearby

Air Quality

  Air Quality AQ Index Pollutant
Not available.

Snow Depth

Station Depth Elevation

Earthquake Activity

City Distance Mag. Time & Date
Minimum magnitude displayed is 2.5.

Coastal Water Temperatures

Place Temperature

Nearby Weather Stations